Bookmark and Share
Track history (hours):
 

Sumisemaru No.5

Last reported at 2014-Apr-15 12:33 UTC. Time now 2014-Apr-23 18:58 UTC.
Position N 34°58' E 139°31'.
Warning: this ship's position is 8 days out of date.

Length 96 m; draft 6 m.

Type: Cargo ship. MMSI: 431700423.

NotesDate/timePositionNaut miles runAvg speedWind from/ knotsBaromVisibWave heightAir tempDewpointWater temp
2014-Apr-15 12:33N 34°58' E 139°31'1111.2
2014-Apr-15 11:34N 35°04' E 139°42'1111.3
2014-Apr-15 10:33N 35°15' E 139°46'1211.7
2014-Apr-15 09:33N 35°26' E 139°42'3 1.0
2014-Apr-15 06:33N 35°29' E 139°40'0 0.0
2014-Apr-15 03:33N 35°29' E 139°40'0 0.0
2014-Apr-15 02:30N 35°29' E 139°40'2 2.0
2014-Apr-15 01:33N 35°27' E 139°41'2 1.6
2014-Apr-15 00:32N 35°26' E 139°42'0 0.1
2014-Apr-14 23:32N 35°25' E 139°42'0 0.0
2014-Apr-14 22:32N 35°25' E 139°42'0 0.0
2014-Apr-14 20:32N 35°25' E 139°42'7 6.9
2014-Apr-14 19:34N 35°19' E 139°44'1110.6
2014-Apr-14 18:34N 35°08' E 139°46'1111.0
2014-Apr-14 17:34N 34°59' E 139°38'239 5.0
2014-Apr-12 17:24N 34°04' E 134°56'1314.2
2014-Apr-12 16:30N 34°17' E 134°58'1313.4
2014-Apr-12 15:33N 34°27' E 135°07'1413.7
2014-Apr-12 14:33N 34°36' E 135°20'7 6.9
2014-Apr-12 13:33N 34°40' E 135°27'0 0.0
2014-Apr-12 12:33N 34°40' E 135°27'0 0.0
2014-Apr-12 11:33N 34°40' E 135°27'0 0.0
2014-Apr-12 10:21N 34°40' E 135°27'0 0.0
2014-Apr-12 09:33N 34°40' E 135°27'0 0.0
2014-Apr-12 08:33N 34°40' E 135°27'0 0.0
2014-Apr-12 07:33N 34°40' E 135°27'0 0.0
2014-Apr-12 06:33N 34°40' E 135°27'0 0.0
2014-Apr-12 05:33N 34°40' E 135°27'0 0.0
2014-Apr-12 04:33N 34°40' E 135°27'0 0.0
2014-Apr-12 03:33N 34°40' E 135°27'0 0.0
2014-Apr-12 02:33N 34°40' E 135°27'2 2.2
2014-Apr-12 01:33N 34°39' E 135°25'6 6.1
2014-Apr-12 00:29N 34°35' E 135°18'0 0.0
2014-Apr-11 23:17N 34°35' E 135°18'0 0.1
2014-Apr-11 22:29N 34°35' E 135°18'0 0.0
2014-Apr-11 21:29N 34°35' E 135°18'0 0.0
2014-Apr-11 20:17N 34°35' E 135°18'0 0.1
2014-Apr-11 19:29N 34°35' E 135°18'0 0.1
2014-Apr-11 18:29N 34°35' E 135°18'0 0.0
2014-Apr-11 17:29N 34°35' E 135°18'0 0.0
2014-Apr-11 16:05N 34°35' E 135°18'3 4.9
2014-Apr-11 15:33N 34°35' E 135°15'1312.5
2014-Apr-11 14:33N 34°37' E 134°60'1612.3
2014-Apr-11 13:17N 34°40' E 134°41'1 0.0
2014-Apr-10 03:32N 34°40' E 134°42'1110.9
2014-Apr-10 02:33N 34°37' E 134°55'9 9.3
2014-Apr-10 01:33N 34°34' E 135°05'1212.1
2014-Apr-10 00:33N 34°22' E 135°01'1211.8
2014-Apr-09 23:33N 34°10' E 134°59'24410.1
2014-Apr-08 23:19N 34°47' E 139°52'1012.8
2014-Apr-08 22:31N 34°52' E 140°03'1112.0
2014-Apr-08 21:33N 34°58' E 140°15'2110.5
2014-Apr-08 19:31N 35°11' E 140°36'1110.8
2014-Apr-08 18:32N 35°21' E 140°42'1212.1
2014-Apr-08 17:33N 35°31' E 140°49'1312.6
2014-Apr-08 16:29N 35°43' E 140°57'1312.4
2014-Apr-08 15:29N 35°55' E 140°57'27 0.5
2014-Apr-06 14:24N 35°30' E 140°46'6212.0
2014-Apr-06 09:14N 34°52' E 139°46'912.4
2014-Apr-06 08:33N 35°00' E 139°43'1313.4
2014-Apr-06 07:33N 35°13' E 139°46'1212.0
2014-Apr-06 06:34N 35°25' E 139°44'1212.1
2014-Apr-06 05:33N 35°29' E 139°58'2 1.6
2014-Apr-06 04:31N 35°28' E 139°59'0 0.0
2014-Apr-06 03:25N 35°28' E 139°59'0 0.1
2014-Apr-06 02:28N 35°28' E 139°59'0 0.0
2014-Apr-06 01:31N 35°28' E 139°59'0 0.0
2014-Apr-06 00:31N 35°28' E 139°59'0 0.0
2014-Apr-05 23:16N 35°28' E 139°59'0 0.0
2014-Apr-05 22:31N 35°28' E 139°59'0 0.0
2014-Apr-05 21:31N 35°28' E 139°59'0 0.0
2014-Apr-05 20:33N 35°28' E 139°59'0 0.0
2014-Apr-05 19:33N 35°28' E 139°59'0 0.0
2014-Apr-05 18:33N 35°28' E 139°59'0 0.0
2014-Apr-05 17:33N 35°28' E 139°59'0 0.0
2014-Apr-05 16:33N 35°28' E 139°59'0 0.0
2014-Apr-05 15:30N 35°28' E 139°59'0 0.0
2014-Apr-05 14:24N 35°28' E 139°59'0 0.0
2014-Apr-05 13:33N 35°28' E 139°59'  

Dump ship's entire track history

sailing weather and tide predictions

Sumisemaru No.5 — JE3162 — position and weather